Time;durP1;ratioP1;P1;durP2;ratioP2;P2;SDS_P1;SDS_P2;PMS_P1;PMS_P2;Temp;Humidity;BMP_temperature;BMP_pressure;BME280_temperature;BME280_humidity;BME280_pressure;Samples;Min_cycle;Max_cycle;Signal;HPM_P1;HPM_P2
2022/09/30 00:01:53;;;;;;;7.57;5.03;;;;;;;17.18;65.10;98703.66;4498272;31;34840;-62
2022/09/30 00:04:22;;;;;;;9.68;5.28;;;;;;;17.19;65.13;98697.22;4494634;31;34006;-63
2022/09/30 00:06:51;;;;;;;7.30;5.32;;;;;;;16.85;66.22;98698.50;4495729;31;34835;-63
2022/09/30 00:09:18;;;;;;;8.23;4.95;;;;;;;16.89;66.09;98693.59;4497202;31;32488;-64
2022/09/30 00:11:46;;;;;;;8.98;4.87;;;;;;;16.94;66.06;98696.56;4494573;31;34056;-63
2022/09/30 00:14:19;;;;;;;6.03;4.50;;;;;;;16.65;67.26;98691.84;4494187;31;34261;-64
2022/09/30 00:16:48;;;;;;;8.98;5.30;;;;;;;16.20;69.19;98683.50;4490474;31;33833;-64
2022/09/30 00:19:15;;;;;;;4.47;3.05;;;;;;;16.65;67.60;98679.19;4498777;31;34498;-63
2022/09/30 00:21:43;;;;;;;5.45;4.07;;;;;;;17.05;65.92;98681.81;4495262;31;34528;-63
2022/09/30 00:24:10;;;;;;;8.15;5.57;;;;;;;17.19;65.45;98689.94;4497160;31;32932;-63
2022/09/30 00:26:38;;;;;;;7.90;4.72;;;;;;;17.27;65.21;98685.47;4493235;31;32408;-63
2022/09/30 00:29:06;;;;;;;7.85;5.25;;;;;;;17.34;65.10;98683.75;4498123;31;32410;-62
2022/09/30 00:31:34;;;;;;;8.02;4.37;;;;;;;17.40;64.95;98683.00;4493013;31;33849;-62
2022/09/30 00:34:06;;;;;;;5.55;3.85;;;;;;;17.35;65.19;98674.59;4496537;31;34464;-62
2022/09/30 00:36:37;;;;;;;6.70;4.37;;;;;;;17.33;65.31;98669.34;4491134;31;33814;-63
2022/09/30 00:39:06;;;;;;;4.87;3.37;;;;;;;17.39;65.09;98670.50;4493123;31;32394;-63
2022/09/30 00:41:35;;;;;;;5.97;4.35;;;;;;;17.40;65.10;98669.50;4496815;31;34141;-63
2022/09/30 00:44:42;;;;;;;8.20;4.00;;;;;;;17.30;65.51;98668.88;4499510;31;33452;-63
2022/09/30 00:47:38;;;;;;;7.28;4.57;;;;;;;17.13;66.28;98670.91;4495333;31;35015;-63
2022/09/30 00:50:15;;;;;;;8.43;4.25;;;;;;;17.22;66.04;98667.09;4484463;31;33878;-63
2022/09/30 00:52:47;;;;;;;6.97;4.22;;;;;;;17.41;65.43;98661.16;4492339;31;32441;-63
2022/09/30 00:55:26;;;;;;;4.25;2.87;;;;;;;17.49;65.18;98664.81;4495119;31;33623;-63
2022/09/30 00:57:54;;;;;;;6.62;3.92;;;;;;;17.56;64.98;98652.22;4496430;31;34035;-64
2022/09/30 01:00:22;;;;;;;5.70;3.37;;;;;;;17.61;64.80;98657.91;4489524;31;32662;-64
2022/09/30 01:02:49;;;;;;;6.72;4.50;;;;;;;17.68;64.67;98656.12;4489797;31;34003;-63
2022/09/30 01:05:17;;;;;;;8.30;5.80;;;;;;;17.66;64.53;98656.34;4499016;31;33356;-63
2022/09/30 01:07:45;;;;;;;7.53;4.40;;;;;;;17.70;64.44;98656.81;4497077;31;33932;-64
2022/09/30 01:10:13;;;;;;;11.12;5.95;;;;;;;17.70;64.33;98662.22;4498406;31;32210;-63
2022/09/30 01:12:41;;;;;;;7.22;4.00;;;;;;;17.76;64.22;98666.06;4495299;31;33650;-63
2022/09/30 01:15:09;;;;;;;8.98;5.05;;;;;;;17.76;64.27;98664.19;4497617;31;33841;-63
2022/09/30 01:17:39;;;;;;;10.45;5.47;;;;;;;17.79;64.17;98665.72;4485618;31;32473;-63
2022/09/30 01:20:34;;;;;;;6.62;3.30;;;;;;;17.84;64.05;98663.25;4495312;31;34060;-63
2022/09/30 01:23:14;;;;;;;7.95;5.05;;;;;;;17.76;64.38;98671.47;4486245;31;32111;-63
2022/09/30 01:25:53;;;;;;;7.30;5.20;;;;;;;17.83;64.15;98673.25;4489613;31;34044;-63
2022/09/30 01:28:29;;;;;;;8.93;5.78;;;;;;;17.82;64.15;98657.22;4497110;31;35001;-64
2022/09/30 01:31:21;;;;;;;6.87;3.95;;;;;;;17.74;64.66;98652.69;4494033;31;35140;-63
2022/09/30 01:33:52;;;;;;;8.77;4.53;;;;;;;17.83;64.16;98654.31;4489601;31;35082;-64
2022/09/30 01:36:27;;;;;;;10.43;6.32;;;;;;;17.83;64.10;98667.84;4497212;31;33527;-63
2022/09/30 01:39:13;;;;;;;;;;;;;;;17.19;66.26;98657.50;4499828;31;34471;-63
2022/09/30 01:41:43;;;;;;;3.92;2.55;;;;;;;17.32;66.09;98673.09;4496589;31;34314;-63
2022/09/30 01:44:21;;;;;;;4.60;2.90;;;;;;;17.50;65.35;98670.06;4481935;31;33738;-63
2022/09/30 01:46:56;;;;;;;4.43;2.87;;;;;;;17.49;65.44;98667.50;4486695;31;32184;-64
2022/09/30 01:49:31;;;;;;;4.10;2.17;;;;;;;17.40;65.88;98653.25;4485372;31;35056;-63
2022/09/30 01:52:08;;;;;;;3.80;1.75;;;;;;;16.95;67.02;98642.34;4483737;31;34182;-64
2022/09/30 01:55:07;;;;;;;4.70;2.62;;;;;;;17.05;67.08;98633.16;4490467;31;34098;-64
2022/09/30 01:57:45;;;;;;;7.70;4.22;;;;;;;16.82;67.98;98634.03;4488765;31;32152;-64
2022/09/30 02:00:14;;;;;;;3.40;2.30;;;;;;;17.07;67.33;98631.91;4489382;31;34775;-64
2022/09/30 02:02:49;;;;;;;4.28;2.80;;;;;;;17.17;67.02;98637.06;4485319;31;34844;-64
2022/09/30 02:05:28;;;;;;;4.60;3.03;;;;;;;17.11;67.30;98629.69;4490501;31;35026;-64
2022/09/30 02:08:28;;;;;;;6.22;3.20;;;;;;;16.80;68.23;98635.22;4484702;31;33291;-65
2022/09/30 02:11:18;;;;;;;4.62;3.08;;;;;;;16.62;69.39;98633.62;4481358;31;34621;-64
2022/09/30 02:13:54;;;;;;;7.00;4.45;;;;;;;16.89;68.48;98626.84;4493535;31;33596;-64
2022/09/30 02:16:31;;;;;;;10.35;4.07;;;;;;;16.96;68.21;98632.38;4490462;31;34577;-65
2022/09/30 02:19:10;;;;;;;6.28;3.37;;;;;;;17.10;67.88;98631.56;4484043;31;35241;-66
2022/09/30 02:21:39;;;;;;;6.10;3.67;;;;;;;17.30;67.22;98639.97;4493623;31;33774;-64
2022/09/30 02:24:09;;;;;;;4.30;2.28;;;;;;;17.22;67.49;98661.69;4481390;31;34873;-64
2022/09/30 02:26:40;;;;;;;6.35;3.50;;;;;;;17.14;67.91;98664.47;4490607;31;35114;-65
2022/09/30 02:29:14;;;;;;;5.37;3.30;;;;;;;17.38;67.07;98661.53;4487097;31;33618;-66
2022/09/30 02:31:44;;;;;;;5.82;3.78;;;;;;;17.39;67.13;98663.22;4483876;31;33802;-65
2022/09/30 02:34:21;;;;;;;7.03;3.47;;;;;;;17.22;67.60;98653.59;4482084;31;33910;-63
2022/09/30 02:37:04;;;;;;;6.37;3.58;;;;;;;16.88;69.13;98641.38;4484688;31;33821;-64
2022/09/30 02:39:41;;;;;;;6.10;3.83;;;;;;;16.37;71.09;98632.97;4482423;31;33532;-65
2022/09/30 02:42:27;;;;;;;11.38;3.80;;;;;;;16.87;69.33;98601.88;4486478;31;34600;-64
2022/09/30 02:44:59;;;;;;;;;;;;;;;17.11;68.08;98597.25;4484889;31;32272;-64
2022/09/30 02:47:34;;;;;;;6.65;3.78;;;;;;;17.14;67.97;98611.25;4486068;31;35278;-65
2022/09/30 02:50:15;;;;;;;7.07;3.47;;;;;;;17.33;67.53;98626.09;4497404;31;33988;-64
2022/09/30 02:52:59;;;;;;;5.47;4.12;;;;;;;17.47;67.02;98624.44;4495785;31;36995;-64
2022/09/30 02:55:34;;;;;;;8.13;3.72;;;;;;;17.54;66.81;98614.53;4494564;31;33876;-64
2022/09/30 02:58:13;;;;;;;7.03;4.50;;;;;;;17.65;66.50;98614.06;4492270;31;33672;-65
2022/09/30 03:00:41;;;;;;;7.53;5.30;;;;;;;17.70;66.29;98610.81;4490390;31;34492;-64
2022/09/30 03:03:20;;;;;;;6.05;3.08;;;;;;;17.66;66.37;98602.22;4498261;31;34946;-65
2022/09/30 03:05:49;;;;;;;6.35;3.67;;;;;;;17.76;65.94;98601.09;4488694;31;35044;-65
2022/09/30 03:08:17;;;;;;;5.32;3.42;;;;;;;17.76;65.98;98601.09;4491728;31;33845;-63
2022/09/30 03:10:46;;;;;;;11.63;5.40;;;;;;;17.89;65.54;98594.00;4497793;31;33507;-64
2022/09/30 03:13:32;;;;;;;5.03;2.92;;;;;;;17.89;65.54;98602.12;4498013;31;32763;-65
2022/09/30 03:16:20;;;;;;;6.30;4.20;;;;;;;18.01;65.29;98599.78;4495417;31;35226;-64
2022/09/30 03:19:00;;;;;;;5.57;3.45;;;;;;;17.89;65.57;98594.00;4496727;31;35617;-64
2022/09/30 03:21:38;;;;;;;5.55;3.42;;;;;;;17.99;65.31;98591.00;4484276;31;34856;-64
2022/09/30 03:24:11;;;;;;;5.00;3.30;;;;;;;17.97;65.44;98597.63;4484703;31;35011;-64
2022/09/30 03:27:08;;;;;;;5.65;3.30;;;;;;;18.02;65.36;98614.16;4492612;31;34327;-64
2022/09/30 03:30:02;;;;;;;7.12;3.78;;;;;;;17.99;65.45;98618.06;4487175;31;33596;-63
2022/09/30 03:32:50;;;;;;;6.95;4.70;;;;;;;18.12;64.93;98626.34;4493974;31;31976;-63
2022/09/30 03:35:21;;;;;;;4.30;3.40;;;;;;;18.06;65.30;98626.28;4490069;31;33678;-64
2022/09/30 03:38:04;;;;;;;7.90;4.47;;;;;;;18.04;65.28;98626.47;4490184;31;34246;-64
2022/09/30 03:41:06;;;;;;;5.25;3.30;;;;;;;17.74;66.43;98624.78;4486402;31;32425;-63
2022/09/30 03:44:03;;;;;;;6.07;4.53;;;;;;;17.30;68.33;98615.63;4479897;31;33266;-63
2022/09/30 03:46:37;;;;;;;6.25;4.20;;;;;;;16.80;70.48;98621.72;4489070;31;33769;-64
2022/09/30 03:49:09;;;;;;;6.25;4.45;;;;;;;16.64;71.33;98622.66;4482986;31;35320;-63
2022/09/30 03:51:37;;;;;;;10.77;5.10;;;;;;;16.39;72.54;98613.87;4492084;31;33795;-63
2022/09/30 03:54:10;;;;;;;5.10;3.47;;;;;;;16.33;72.96;98620.00;4485037;31;32026;-63
2022/09/30 03:56:41;;;;;;;6.15;3.92;;;;;;;16.53;72.14;98615.78;4481225;31;32843;-64
2022/09/30 03:59:19;;;;;;;7.75;4.93;;;;;;;16.42;72.65;98619.75;4490789;31;33004;-64
2022/09/30 04:01:47;;;;;;;4.75;2.92;;;;;;;16.53;72.24;98619.34;4484192;31;33612;-63
2022/09/30 04:04:14;;;;;;;6.68;4.07;;;;;;;16.35;72.97;98626.91;4497140;31;33325;-64
2022/09/30 04:06:42;;;;;;;5.80;3.75;;;;;;;16.48;72.22;98621.75;4496633;31;33835;-63
2022/09/30 04:09:10;;;;;;;7.57;4.53;;;;;;;16.76;71.46;98627.47;4496228;31;33637;-63
2022/09/30 04:11:38;;;;;;;6.78;4.00;;;;;;;16.75;71.39;98623.06;4491123;31;32964;-64
2022/09/30 04:14:05;;;;;;;6.45;3.47;;;;;;;16.82;71.18;98627.75;4487733;31;33611;-64
2022/09/30 04:16:33;;;;;;;5.85;3.87;;;;;;;16.82;71.14;98625.91;4489775;31;34894;-63
2022/09/30 04:19:01;;;;;;;6.65;4.78;;;;;;;17.06;70.28;98629.41;4494646;31;34191;-63
2022/09/30 04:21:28;;;;;;;4.47;3.12;;;;;;;17.16;69.94;98619.16;4491349;31;34886;-64
2022/09/30 04:23:56;;;;;;;7.75;3.58;;;;;;;17.30;69.28;98625.62;4488907;31;34704;-64
2022/09/30 04:26:23;;;;;;;5.45;3.47;;;;;;;17.33;69.22;98630.66;4493268;31;32672;-63
2022/09/30 04:28:51;;;;;;;6.28;4.43;;;;;;;17.56;68.44;98631.44;4496096;31;33822;-64
2022/09/30 04:31:19;;;;;;;8.57;4.93;;;;;;;17.25;69.05;98633.47;4490109;31;33990;-65
2022/09/30 04:33:48;;;;;;;8.52;5.03;;;;;;;17.43;68.49;98628.50;4490995;31;33215;-65
2022/09/30 04:36:15;;;;;;;6.82;4.85;;;;;;;17.45;68.45;98634.59;4492859;31;34414;-65
2022/09/30 04:38:42;;;;;;;9.18;4.40;;;;;;;17.56;68.01;98655.78;4491688;31;35130;-64
2022/09/30 04:41:14;;;;;;;7.62;4.95;;;;;;;17.63;67.68;98650.47;4489633;31;34960;-63
2022/09/30 04:43:45;;;;;;;7.40;3.50;;;;;;;17.76;67.36;98664.19;4497344;31;31566;-63
2022/09/30 04:46:18;;;;;;;9.50;4.30;;;;;;;17.46;67.90;98655.19;4494833;31;32840;-64
2022/09/30 04:48:46;;;;;;;4.35;3.15;;;;;;;17.72;67.43;98662.88;4497225;31;34454;-68
2022/09/30 04:51:16;;;;;;;6.28;3.90;;;;;;;17.69;67.29;98669.50;4488399;31;34930;-64
2022/09/30 04:53:45;;;;;;;7.53;5.03;;;;;;;17.72;67.40;98671.00;4493922;31;32429;-63
2022/09/30 04:56:13;;;;;;;8.50;5.18;;;;;;;17.72;67.10;98671.00;4486925;31;33799;-62
2022/09/30 04:58:41;;;;;;;8.27;4.50;;;;;;;17.65;67.31;98670.03;4497362;31;32523;-63
2022/09/30 05:01:14;;;;;;;8.40;5.50;;;;;;;17.59;67.65;98673.50;4486658;31;34780;-63
2022/09/30 05:03:42;;;;;;;6.97;4.97;;;;;;;17.51;67.84;98669.00;4496610;31;34635;-63
2022/09/30 05:06:10;;;;;;;6.30;4.12;;;;;;;17.33;68.70;98673.94;4492445;31;33907;-63
2022/09/30 05:08:38;;;;;;;8.77;4.93;;;;;;;17.27;68.96;98674.66;4487012;31;35081;-63
2022/09/30 05:11:16;;;;;;;6.30;4.43;;;;;;;17.53;68.02;98674.22;4487223;31;34639;-64
2022/09/30 05:13:44;;;;;;;7.03;4.43;;;;;;;17.43;68.48;98669.94;4492881;31;33379;-63
2022/09/30 05:16:12;;;;;;;6.72;4.37;;;;;;;17.40;68.69;98673.03;4485579;31;35178;-62
2022/09/30 05:18:44;;;;;;;10.73;5.32;;;;;;;17.46;68.40;98672.28;4494092;31;33692;-62
2022/09/30 05:21:13;;;;;;;8.27;5.55;;;;;;;17.27;69.13;98675.53;4489781;31;32246;-63
2022/09/30 05:23:41;;;;;;;5.85;4.32;;;;;;;17.10;70.14;98682.09;4493761;31;33147;-63
2022/09/30 05:26:09;;;;;;;9.52;5.18;;;;;;;17.04;70.53;98680.09;4487775;31;33788;-62
2022/09/30 05:28:40;;;;;;;8.40;5.97;;;;;;;17.26;69.88;98687.34;4495668;31;33872;-63
2022/09/30 05:31:08;;;;;;;9.15;5.53;;;;;;;17.24;69.77;98684.00;4493186;31;32346;-63
2022/09/30 05:33:36;;;;;;;10.55;5.37;;;;;;;17.34;69.63;98684.56;4488793;31;31833;-63
2022/09/30 05:36:05;;;;;;;8.25;5.10;;;;;;;17.54;68.98;98695.69;4486873;31;34853;-63
2022/09/30 05:38:34;;;;;;;8.35;4.30;;;;;;;17.53;68.95;98685.91;4495312;31;34122;-62
2022/09/30 05:41:07;;;;;;;9.13;5.47;;;;;;;17.08;70.68;98681.41;4491712;31;32553;-62
2022/09/30 05:43:37;;;;;;;10.38;6.40;;;;;;;17.07;70.67;98685.16;4495628;31;34527;-63
2022/09/30 05:46:04;;;;;;;10.82;5.75;;;;;;;16.49;73.52;98690.94;4488916;31;34926;-62
2022/09/30 05:48:33;;;;;;;7.28;4.85;;;;;;;16.85;72.00;98697.66;4492951;31;34998;-62
2022/09/30 05:51:01;;;;;;;8.88;5.78;;;;;;;16.96;71.31;98697.25;4491373;31;35002;-62
2022/09/30 05:53:30;;;;;;;6.90;4.82;;;;;;;17.16;70.66;98698.41;4493425;31;33634;-63
2022/09/30 05:55:59;;;;;;;6.05;4.65;;;;;;;16.86;71.99;98702.91;4487371;31;34166;-62
2022/09/30 05:58:26;;;;;;;7.70;5.10;;;;;;;16.84;72.11;98696.81;4495577;31;35057;-63
2022/09/30 06:00:54;;;;;;;13.35;5.85;;;;;;;16.94;71.97;98693.88;4494851;31;33725;-62
2022/09/30 06:03:22;;;;;;;7.18;5.12;;;;;;;16.93;71.96;98698.44;4489217;31;33469;-62
2022/09/30 06:05:55;;;;;;;7.70;5.12;;;;;;;17.02;71.68;98699.22;4492130;31;33992;-62
2022/09/30 06:08:23;;;;;;;8.15;5.43;;;;;;;16.98;71.93;98706.00;4491044;31;35069;-62
2022/09/30 06:10:51;;;;;;;9.00;4.75;;;;;;;17.06;71.83;98708.66;4494939;31;34922;-64
2022/09/30 06:13:20;;;;;;;8.55;4.62;;;;;;;16.77;72.90;98710.22;4490292;31;33213;-62
2022/09/30 06:15:56;;;;;;;13.62;5.90;;;;;;;17.16;71.66;98703.00;4491432;31;35073;-62
2022/09/30 06:18:24;;;;;;;8.50;5.93;;;;;;;17.16;71.64;98708.41;4493385;31;32448;-63
2022/09/30 06:21:02;;;;;;;9.25;5.30;;;;;;;17.25;71.34;98703.78;4493378;31;34336;-63
2022/09/30 06:23:32;;;;;;;10.27;6.78;;;;;;;17.20;71.02;98705.13;4494899;31;34119;-62
2022/09/30 06:26:02;;;;;;;8.85;6.85;;;;;;;17.40;70.58;98710.88;4494469;31;34009;-62
2022/09/30 06:28:33;;;;;;;9.27;6.75;;;;;;;17.57;69.96;98721.56;4492531;31;35827;-63
2022/09/30 06:31:02;;;;;;;10.30;7.68;;;;;;;17.63;69.73;98729.78;4492726;31;34033;-62
2022/09/30 06:33:30;;;;;;;10.80;5.78;;;;;;;17.85;68.93;98733.47;4488488;31;33130;-62
2022/09/30 06:36:03;;;;;;;6.45;4.35;;;;;;;17.71;69.25;98739.66;4494214;31;34001;-62
2022/09/30 06:38:31;;;;;;;7.60;5.05;;;;;;;17.91;68.40;98738.13;4489679;31;34045;-63
2022/09/30 06:40:59;;;;;;;6.85;4.53;;;;;;;17.99;68.32;98728.25;4488038;31;34063;-62
2022/09/30 06:43:27;;;;;;;9.75;4.97;;;;;;;17.98;68.37;98740.06;4490587;31;34762;-62
2022/09/30 06:45:55;;;;;;;5.57;4.03;;;;;;;17.98;68.37;98729.25;4484251;31;33803;-62
2022/09/30 06:48:40;;;;;;;7.37;3.70;;;;;;;18.12;68.02;98731.97;4493687;31;34097;-62
2022/09/30 06:51:09;;;;;;;8.90;5.85;;;;;;;18.11;67.94;98740.28;4496315;31;32567;-61
2022/09/30 06:53:38;;;;;;;8.70;6.05;;;;;;;18.23;67.77;98743.34;4496253;31;33301;-61
2022/09/30 06:56:06;;;;;;;10.35;5.43;;;;;;;18.16;67.97;98749.50;4496924;31;32601;-62
2022/09/30 06:58:34;;;;;;;11.18;5.07;;;;;;;18.25;67.78;98754.84;4496897;31;35660;-62
2022/09/30 07:01:03;;;;;;;7.10;4.05;;;;;;;18.22;67.61;98752.50;4493962;31;33645;-62
2022/09/30 07:03:33;;;;;;;5.72;4.00;;;;;;;18.25;67.53;98754.84;4494764;31;32702;-62
2022/09/30 07:06:03;;;;;;;6.30;3.33;;;;;;;18.26;67.58;98760.06;4494011;31;34924;-63
2022/09/30 07:08:32;;;;;;;7.18;4.75;;;;;;;18.29;67.57;98758.84;4489356;31;34116;-62
2022/09/30 07:11:03;;;;;;;5.25;3.30;;;;;;;18.31;67.37;98763.03;4493011;31;34892;-62
2022/09/30 07:13:32;;;;;;;8.02;5.60;;;;;;;18.43;67.23;98760.72;4486793;31;33294;-62
2022/09/30 07:15:59;;;;;;;8.18;3.33;;;;;;;18.36;67.29;98767.88;4497494;31;32485;-62
2022/09/30 07:18:27;;;;;;;10.75;4.05;;;;;;;18.39;67.33;98771.09;4491930;31;33561;-63
2022/09/30 07:20:55;;;;;;;5.05;2.95;;;;;;;18.31;67.62;98765.75;4497901;31;33784;-63
2022/09/30 07:23:26;;;;;;;7.60;5.00;;;;;;;18.47;67.12;98774.72;4497834;31;34593;-63
2022/09/30 07:25:56;;;;;;;8.25;6.18;;;;;;;18.49;67.12;98778.91;4492761;31;33657;-63
2022/09/30 07:28:30;;;;;;;5.00;3.42;;;;;;;18.35;67.59;98783.31;4492177;31;32650;-66
2022/09/30 07:31:01;;;;;;;6.75;4.15;;;;;;;18.55;66.99;98783.56;4486837;31;34920;-61
2022/09/30 07:33:51;;;;;;;7.70;4.57;;;;;;;18.43;67.31;98789.69;4496821;31;32187;-62
2022/09/30 07:36:25;;;;;;;4.57;3.08;;;;;;;18.47;66.99;98794.50;4489015;31;32894;-61
2022/09/30 07:39:04;;;;;;;6.50;3.95;;;;;;;18.36;67.22;98800.41;4496244;31;32507;-62
2022/09/30 07:41:34;;;;;;;7.25;5.25;;;;;;;18.48;67.05;98801.59;4493053;31;34630;-62
2022/09/30 07:44:04;;;;;;;6.65;5.12;;;;;;;18.58;66.68;98802.16;4500821;31;34394;-62
2022/09/30 07:46:37;;;;;;;7.30;5.00;;;;;;;18.37;67.33;98804.81;4494305;31;33620;-62
2022/09/30 07:49:07;;;;;;;7.57;4.82;;;;;;;18.58;66.67;98795.91;4497719;31;33983;-62
2022/09/30 07:51:39;;;;;;;5.35;3.80;;;;;;;18.51;66.86;98801.22;4498001;31;33872;-61
2022/09/30 07:54:09;;;;;;;7.95;4.80;;;;;;;18.33;67.54;98809.75;4497227;31;34215;-62
2022/09/30 07:56:38;;;;;;;6.80;4.18;;;;;;;18.05;68.38;98816.84;4487775;31;33904;-62
2022/09/30 07:59:27;;;;;;;9.80;6.37;;;;;;;17.61;70.40;98822.97;4494369;31;33887;-62
2022/09/30 08:01:55;;;;;;;12.05;6.78;;;;;;;17.99;68.99;98814.88;4496257;31;33113;-61
2022/09/30 08:04:24;;;;;;;10.00;8.20;;;;;;;17.57;70.43;98827.06;4495749;31;32037;-61
2022/09/30 08:06:58;;;;;;;10.63;7.18;;;;;;;17.72;70.50;98824.38;4496216;31;33882;-61
2022/09/30 08:09:27;;;;;;;9.07;5.37;;;;;;;18.01;69.13;98829.91;4491686;31;32755;-61
2022/09/30 08:11:55;;;;;;;11.12;7.50;;;;;;;18.06;69.25;98829.34;4489424;31;33618;-61
2022/09/30 08:14:25;;;;;;;8.00;6.03;;;;;;;17.82;69.79;98833.97;4493276;31;33489;-62
2022/09/30 08:16:55;;;;;;;10.75;8.07;;;;;;;17.36;72.14;98833.13;4495639;31;34305;-62
2022/09/30 08:19:24;;;;;;;9.95;7.07;;;;;;;17.24;72.72;98835.44;4492960;31;33820;-62
2022/09/30 08:21:52;;;;;;;13.10;10.40;;;;;;;17.33;72.45;98844.31;4491866;31;34480;-62
2022/09/30 08:24:22;;;;;;;12.65;9.25;;;;;;;17.08;73.72;98846.31;4496799;31;34816;-61
2022/09/30 08:26:50;;;;;;;11.80;8.20;;;;;;;16.90;74.07;98852.03;4495489;31;33712;-62
2022/09/30 08:29:18;;;;;;;15.57;11.57;;;;;;;16.67;75.71;98855.47;4498850;31;33663;-62
2022/09/30 08:32:06;;;;;;;14.95;10.68;;;;;;;16.46;77.51;98861.44;4489424;31;32644;-62
2022/09/30 08:34:34;;;;;;;12.90;10.13;;;;;;;16.38;78.12;98866.03;4492501;31;32317;-61
2022/09/30 08:37:03;;;;;;;13.00;8.13;;;;;;;16.78;76.58;98870.47;4497549;31;34001;-61
2022/09/30 08:39:37;;;;;;;12.10;7.07;;;;;;;16.30;78.72;98869.59;4495940;31;35386;-62
2022/09/30 08:42:42;;;;;;;12.45;7.30;;;;;;;16.71;77.37;98873.00;4496147;31;33886;-63
2022/09/30 08:46:01;;;;;;;11.60;7.87;;;;;;;16.66;77.84;98879.94;4469187;31;33434;-62
2022/09/30 08:48:41;;;;;;;7.78;5.40;;;;;;;16.44;79.42;98895.91;4447622;32;33563;-62
2022/09/30 08:51:23;;;;;;;11.05;6.95;;;;;;;16.13;79.85;98895.78;4444100;32;34145;-62
2022/09/30 08:53:51;;;;;;;8.73;6.75;;;;;;;16.09;80.97;98899.84;4473675;31;32767;-62
2022/09/30 08:56:22;;;;;;;6.60;4.85;;;;;;;16.07;80.94;98901.88;4482423;31;34412;-62
2022/09/30 08:58:54;;;;;;;13.80;6.12;;;;;;;16.40;79.90;98896.41;4484022;31;34713;-61
2022/09/30 09:01:29;;;;;;;7.35;5.60;;;;;;;16.61;78.78;98887.75;4496137;31;32407;-62
2022/09/30 09:03:57;;;;;;;;;;;;;;;16.90;77.32;98888.00;4481559;31;33517;-62
2022/09/30 09:06:29;;;;;;;9.80;5.35;;;;;;;16.56;79.15;98892.81;4482111;31;32035;-62
2022/09/30 09:09:15;;;;;;;5.62;3.85;;;;;;;16.02;81.95;98894.28;4487834;31;33804;-62
2022/09/30 09:11:48;;;;;;;6.97;4.95;;;;;;;16.04;82.45;98897.66;4490580;31;34074;-62
2022/09/30 09:14:51;;;;;;;5.15;3.95;;;;;;;16.82;79.42;98903.37;4489240;31;32380;-63
2022/09/30 09:17:36;;;;;;;4.53;2.95;;;;;;;16.93;79.26;98905.72;4439755;32;33369;-69
2022/09/30 09:20:13;;;;;;;4.55;2.78;;;;;;;16.71;79.69;98905.44;4490194;31;33469;-67
2022/09/30 09:22:42;;;;;;;7.03;4.50;;;;;;;17.10;77.86;98917.28;4496430;31;33669;-63
2022/09/30 09:25:19;;;;;;;6.35;4.37;;;;;;;17.02;77.84;98912.78;4498663;31;33593;-63
2022/09/30 09:28:32;;;;;;;2.42;2.05;;;;;;;17.34;76.43;98917.16;4489983;31;33254;-63
2022/09/30 09:31:00;;;;;;;2.37;1.85;;;;;;;17.21;77.19;98925.87;4461487;31;34207;-64
2022/09/30 09:33:38;;;;;;;4.07;1.87;;;;;;;16.81;79.55;98934.97;4493820;31;32655;-65
2022/09/30 09:36:35;;;;;;;4.80;2.58;;;;;;;17.22;77.81;98935.66;4493618;31;32667;-65
2022/09/30 09:39:15;;;;;;;3.40;2.08;;;;;;;16.94;79.28;98937.97;4484479;32;33252;-65
2022/09/30 09:41:55;;;;;;;3.80;2.65;;;;;;;16.79;79.75;98938.88;4484421;31;34710;-65
2022/09/30 09:44:41;;;;;;;6.18;2.78;;;;;;;16.60;79.89;98935.53;4490113;31;33798;-67
2022/09/30 09:47:15;;;;;;;5.15;3.40;;;;;;;16.59;80.28;98943.78;4485771;31;33906;-67
2022/09/30 09:49:45;;;;;;;4.77;2.73;;;;;;;17.00;78.49;98941.84;4495405;31;33274;-67
2022/09/30 09:52:22;;;;;;;4.12;2.85;;;;;;;16.57;80.68;98943.16;4490869;31;34807;-67
2022/09/30 09:54:55;;;;;;;4.28;3.10;;;;;;;16.62;80.48;98948.84;4495068;31;33892;-65
2022/09/30 09:57:31;;;;;;;5.45;3.03;;;;;;;16.63;80.39;98954.09;4490212;31;33082;-65
2022/09/30 10:03:23;;;;;;;4.10;2.62;;;;;;;17.48;76.15;98953.44;4487700;31;33593;-67
2022/09/30 10:06:07;;;;;;;4.78;3.25;;;;;;;17.26;77.29;98943.41;4488027;31;32960;-66
2022/09/30 10:08:52;;;;;;;5.12;3.10;;;;;;;17.83;75.11;98951.22;4496492;31;35297;-65
2022/09/30 10:11:22;;;;;;;3.90;2.55;;;;;;;18.01;74.28;98953.59;4489344;31;33546;-66
2022/09/30 10:13:52;;;;;;;6.60;5.80;;;;;;;18.13;73.52;98944.84;4492931;31;34281;-67
2022/09/30 10:16:35;;;;;;;8.20;4.70;;;;;;;17.79;74.93;98944.47;4498266;31;32520;-67
2022/09/30 10:19:19;;;;;;;3.75;2.12;;;;;;;17.96;75.36;98950.59;4501175;31;33892;-66
2022/09/30 10:21:46;;;;;;;9.80;5.37;;;;;;;17.54;76.72;98962.69;4497824;31;33443;-63
2022/09/30 10:24:32;;;;;;;3.67;2.28;;;;;;;17.68;76.32;98964.63;4489194;31;34005;-63
2022/09/30 10:27:00;;;;;;;4.25;2.80;;;;;;;17.64;76.62;98969.56;4489830;31;33924;-63
2022/09/30 10:29:33;;;;;;;11.80;6.00;;;;;;;17.60;76.16;98970.94;4495202;31;33832;-63
2022/09/30 10:32:03;;;;;;;9.55;5.72;;;;;;;17.75;76.68;98970.16;4486123;31;33279;-63
2022/09/30 10:34:38;;;;;;;2.92;1.77;;;;;;;18.04;75.81;98974.88;4495084;31;33903;-63
2022/09/30 10:37:12;;;;;;;4.15;2.83;;;;;;;18.27;74.66;98978.44;4496222;31;34668;-63
2022/09/30 10:39:42;;;;;;;4.87;3.60;;;;;;;18.32;74.17;98978.72;4494544;31;33874;-63
2022/09/30 10:42:25;;;;;;;5.05;2.55;;;;;;;18.58;72.76;98977.47;4482393;31;33090;-63
2022/09/30 10:44:55;;;;;;;3.78;2.17;;;;;;;18.44;71.92;98989.97;4485135;31;33866;-64
2022/09/30 10:47:27;;;;;;;3.30;1.87;;;;;;;18.10;73.42;98995.81;4498110;31;33583;-64
2022/09/30 10:50:08;;;;;;;9.25;1.55;;;;;;;18.34;74.47;99000.22;4497917;31;33842;-64
2022/09/30 10:52:39;;;;;;;1.30;0.82;;;;;;;18.34;74.57;98994.81;4486806;31;33301;-64
2022/09/30 10:55:28;;;;;;;2.87;1.85;;;;;;;18.77;72.40;98995.94;4493155;31;33929;-64
2022/09/30 10:58:00;;;;;;;2.70;1.40;;;;;;;18.34;73.65;98998.34;4492069;31;34050;-63
2022/09/30 11:00:28;;;;;;;1.50;1.10;;;;;;;18.80;72.14;99005.56;4506625;31;34089;-64
2022/09/30 11:03:23;;;;;;;2.55;1.37;;;;;;;18.82;71.88;99012.50;4498421;31;33737;-64
2022/09/30 11:05:51;;;;;;;2.40;1.25;;;;;;;19.10;70.38;99017.28;4495813;31;34063;-63
2022/09/30 11:08:43;;;;;;;3.15;1.67;;;;;;;18.72;71.57;99027.31;4497454;31;34990;-64
2022/09/30 11:11:14;;;;;;;2.35;1.20;;;;;;;19.05;69.95;99035.97;4492896;31;34477;-64
2022/09/30 11:14:12;;;;;;;2.00;1.30;;;;;;;18.98;69.84;99046.72;4499649;31;33307;-63
2022/09/30 11:16:48;;;;;;;1.92;1.02;;;;;;;19.01;70.26;99056.37;4490658;31;33790;-64
2022/09/30 11:19:40;;;;;;;2.03;1.02;;;;;;;19.40;69.23;99060.66;4486979;31;34015;-64
2022/09/30 11:22:48;;;;;;;1.85;1.12;;;;;;;19.43;68.72;99076.59;4485810;31;33615;-63
2022/09/30 11:25:28;;;;;;;1.65;1.00;;;;;;;19.02;69.17;99087.88;4468889;31;33287;-63
2022/09/30 11:28:18;;;;;;;2.75;1.20;;;;;;;19.11;68.87;99081.34;4485996;31;33892;-63
2022/09/30 11:31:07;;;;;;;0.70;0.50;;;;;;;19.10;69.11;99093.22;4495469;31;33777;-62
2022/09/30 11:33:54;;;;;;;3.35;0.68;;;;;;;19.06;69.63;99100.88;4496477;31;32902;-62
2022/09/30 11:36:57;;;;;;;0.60;0.60;;;;;;;19.18;67.23;99100.41;4489812;31;34600;-62
2022/09/30 11:40:04;;;;;;;2.05;0.68;;;;;;;19.46;66.23;99104.19;4435294;32;33431;-62
2022/09/30 11:42:54;;;;;;;1.70;0.82;;;;;;;19.43;66.10;99101.84;4487571;31;33963;-62
2022/09/30 11:45:52;;;;;;;1.00;0.73;;;;;;;18.68;69.54;99112.72;4491333;31;34718;-62
2022/09/30 11:48:27;;;;;;;2.37;1.12;;;;;;;19.28;67.23;99111.84;4489466;31;33071;-62
2022/09/30 11:51:21;;;;;;;1.48;1.05;;;;;;;19.19;68.22;99112.94;4494937;31;33790;-62
2022/09/30 11:54:03;;;;;;;0.98;0.75;;;;;;;19.50;65.95;99131.78;4489977;31;33633;-62
2022/09/30 11:56:43;;;;;;;1.55;0.95;;;;;;;19.21;66.21;99133.44;4487413;31;34153;-61
2022/09/30 11:59:18;;;;;;;1.73;1.02;;;;;;;19.34;65.80;99135.53;4485535;31;33487;-62
2022/09/30 12:01:49;;;;;;;2.92;1.40;;;;;;;19.50;65.59;99134.50;4488473;31;33565;-64
2022/09/30 12:04:29;;;;;;;2.75;1.05;;;;;;;19.51;66.09;99136.19;4487715;31;33777;-62
2022/09/30 12:07:29;;;;;;;0.70;0.70;;;;;;;19.38;67.41;99144.12;4483711;31;31953;-62
2022/09/30 12:10:00;;;;;;;3.05;1.10;;;;;;;19.08;69.19;99138.66;4495802;31;32344;-62
2022/09/30 12:12:28;;;;;;;2.08;1.27;;;;;;;19.44;67.56;99155.06;4487121;31;33390;-63
2022/09/30 12:15:04;;;;;;;0.93;0.80;;;;;;;19.48;66.64;99152.84;4488788;31;33991;-62